Terminal Aerodrome Forecast
Issued by NWS Charleston, WV

Home | Current Version | Previous Version | Text Only | Print | Product List | Glossary On
Versions: 1 2 3 4 5 6 7 8 9 10 11 12 13 14 15 16 17 18 19 20 21 22 23 24 25
000
FTUS41 KRLX 211741
TAFCRW
TAF
KCRW 211741Z 2118/2218 01004KT P6SM SCT025
     FM220000 00000KT P6SM FEW250
     FM220600 00000KT 5SM BR FEW001
     FM220700 00000KT 1/4SM FG OVC001
     FM221200 00000KT 2SM BR BKN002
     FM221300 00000KT 4SM BR SCT003
     FM221400 00000KT P6SM FEW050=

USA.gov is the U.S. government's official web portal to all federal, state and local government web resources and services.